sensor_id;sensor_type;location;lat;lon;timestamp;P1;durP1;ratioP1;P2;durP2;ratioP2
33593;SDS011;19920;52.242;20.940;2022-09-09T00:04:42;8.13;;;5.10;;
33593;SDS011;19920;52.242;20.940;2022-09-09T00:12:59;9.60;;;4.88;;
33593;SDS011;19920;52.242;20.940;2022-09-09T00:21:32;9.60;;;5.53;;
33593;SDS011;19920;52.242;20.940;2022-09-09T00:24:19;12.55;;;5.60;;
33593;SDS011;19920;52.242;20.940;2022-09-09T00:27:23;10.27;;;6.10;;
33593;SDS011;19920;52.242;20.940;2022-09-09T00:33:09;10.05;;;6.22;;
33593;SDS011;19920;52.242;20.940;2022-09-09T00:35:50;12.32;;;6.22;;
33593;SDS011;19920;52.242;20.940;2022-09-09T00:38:21;15.68;;;6.78;;
33593;SDS011;19920;52.242;20.940;2022-09-09T00:41:14;13.65;;;6.35;;
33593;SDS011;19920;52.242;20.940;2022-09-09T00:46:56;13.68;;;6.57;;
33593;SDS011;19920;52.242;20.940;2022-09-09T00:58:13;12.05;;;7.32;;
33593;SDS011;19920;52.242;20.940;2022-09-09T01:03:17;15.40;;;6.78;;
33593;SDS011;19920;52.242;20.940;2022-09-09T01:10:56;15.18;;;7.30;;
33593;SDS011;19920;52.242;20.940;2022-09-09T01:13:31;12.32;;;7.72;;
33593;SDS011;19920;52.242;20.940;2022-09-09T01:16:00;15.60;;;8.05;;
33593;SDS011;19920;52.242;20.940;2022-09-09T01:18:39;13.75;;;8.43;;
33593;SDS011;19920;52.242;20.940;2022-09-09T01:24:34;12.88;;;7.90;;
33593;SDS011;19920;52.242;20.940;2022-09-09T01:27:31;12.48;;;7.57;;
33593;SDS011;19920;52.242;20.940;2022-09-09T01:29:59;12.73;;;7.32;;
33593;SDS011;19920;52.242;20.940;2022-09-09T01:32:43;14.00;;;7.57;;
33593;SDS011;19920;52.242;20.940;2022-09-09T01:37:59;14.85;;;7.85;;
33593;SDS011;19920;52.242;20.940;2022-09-09T01:40:25;13.40;;;7.72;;
33593;SDS011;19920;52.242;20.940;2022-09-09T01:42:51;10.90;;;7.63;;
33593;SDS011;19920;52.242;20.940;2022-09-09T01:45:18;13.25;;;8.40;;
33593;SDS011;19920;52.242;20.940;2022-09-09T01:47:44;16.17;;;8.68;;
33593;SDS011;19920;52.242;20.940;2022-09-09T01:50:11;13.70;;;7.78;;
33593;SDS011;19920;52.242;20.940;2022-09-09T01:52:39;12.93;;;8.48;;
33593;SDS011;19920;52.242;20.940;2022-09-09T01:55:06;13.27;;;8.10;;
33593;SDS011;19920;52.242;20.940;2022-09-09T01:57:36;14.07;;;7.95;;
33593;SDS011;19920;52.242;20.940;2022-09-09T02:00:14;13.93;;;8.48;;
33593;SDS011;19920;52.242;20.940;2022-09-09T02:08:29;13.90;;;8.32;;
33593;SDS011;19920;52.242;20.940;2022-09-09T02:11:12;15.40;;;8.13;;
33593;SDS011;19920;52.242;20.940;2022-09-09T02:13:40;18.38;;;8.45;;
33593;SDS011;19920;52.242;20.940;2022-09-09T02:16:08;14.80;;;8.65;;
33593;SDS011;19920;52.242;20.940;2022-09-09T02:18:40;12.65;;;8.75;;
33593;SDS011;19920;52.242;20.940;2022-09-09T02:21:27;17.20;;;8.07;;
33593;SDS011;19920;52.242;20.940;2022-09-09T02:23:55;14.27;;;9.55;;
33593;SDS011;19920;52.242;20.940;2022-09-09T02:26:24;14.48;;;8.88;;
33593;SDS011;19920;52.242;20.940;2022-09-09T02:28:51;15.25;;;9.20;;
33593;SDS011;19920;52.242;20.940;2022-09-09T02:31:21;13.38;;;8.68;;
33593;SDS011;19920;52.242;20.940;2022-09-09T02:33:54;15.63;;;9.57;;
33593;SDS011;19920;52.242;20.940;2022-09-09T02:36:23;15.02;;;9.40;;
33593;SDS011;19920;52.242;20.940;2022-09-09T02:38:51;17.42;;;9.68;;
33593;SDS011;19920;52.242;20.940;2022-09-09T02:41:30;15.73;;;9.85;;
33593;SDS011;19920;52.242;20.940;2022-09-09T02:43:58;15.65;;;8.93;;
33593;SDS011;19920;52.242;20.940;2022-09-09T02:54:26;14.02;;;8.70;;
33593;SDS011;19920;52.242;20.940;2022-09-09T02:56:57;15.30;;;9.20;;
33593;SDS011;19920;52.242;20.940;2022-09-09T02:59:35;16.90;;;10.00;;
33593;SDS011;19920;52.242;20.940;2022-09-09T03:02:01;14.02;;;9.45;;
33593;SDS011;19920;52.242;20.940;2022-09-09T03:04:28;16.17;;;9.82;;
33593;SDS011;19920;52.242;20.940;2022-09-09T03:06:55;14.50;;;9.13;;
33593;SDS011;19920;52.242;20.940;2022-09-09T03:09:20;16.63;;;9.52;;
33593;SDS011;19920;52.242;20.940;2022-09-09T03:11:46;14.23;;;9.23;;
33593;SDS011;19920;52.242;20.940;2022-09-09T03:14:12;13.00;;;8.98;;
33593;SDS011;19920;52.242;20.940;2022-09-09T03:16:38;14.90;;;8.63;;
33593;SDS011;19920;52.242;20.940;2022-09-09T03:19:03;12.70;;;8.10;;
33593;SDS011;19920;52.242;20.940;2022-09-09T03:21:29;12.27;;;8.05;;
33593;SDS011;19920;52.242;20.940;2022-09-09T03:23:55;11.82;;;7.47;;
33593;SDS011;19920;52.242;20.940;2022-09-09T03:26:20;12.55;;;7.85;;
33593;SDS011;19920;52.242;20.940;2022-09-09T03:28:46;10.93;;;7.18;;
33593;SDS011;19920;52.242;20.940;2022-09-09T03:31:12;10.07;;;7.45;;
33593;SDS011;19920;52.242;20.940;2022-09-09T03:33:37;11.43;;;7.25;;
33593;SDS011;19920;52.242;20.940;2022-09-09T03:36:04;12.63;;;7.60;;
33593;SDS011;19920;52.242;20.940;2022-09-09T03:38:30;11.48;;;7.68;;
33593;SDS011;19920;52.242;20.940;2022-09-09T03:40:57;11.68;;;7.95;;
33593;SDS011;19920;52.242;20.940;2022-09-09T03:43:25;13.80;;;8.30;;
33593;SDS011;19920;52.242;20.940;2022-09-09T03:45:52;11.90;;;8.27;;
33593;SDS011;19920;52.242;20.940;2022-09-09T03:48:21;14.90;;;8.45;;
33593;SDS011;19920;52.242;20.940;2022-09-09T03:50:49;12.63;;;8.25;;
33593;SDS011;19920;52.242;20.940;2022-09-09T03:53:17;9.57;;;7.63;;
33593;SDS011;19920;52.242;20.940;2022-09-09T03:55:47;10.48;;;8.18;;
33593;SDS011;19920;52.242;20.940;2022-09-09T03:58:15;10.75;;;8.18;;
33593;SDS011;19920;52.242;20.940;2022-09-09T04:00:43;11.45;;;8.15;;
33593;SDS011;19920;52.242;20.940;2022-09-09T04:03:22;12.00;;;8.20;;
33593;SDS011;19920;52.242;20.940;2022-09-09T04:05:50;12.55;;;8.00;;
33593;SDS011;19920;52.242;20.940;2022-09-09T04:08:20;10.02;;;7.28;;
33593;SDS011;19920;52.242;20.940;2022-09-09T04:10:47;12.13;;;7.93;;
33593;SDS011;19920;52.242;20.940;2022-09-09T04:13:15;10.38;;;7.60;;
33593;SDS011;19920;52.242;20.940;2022-09-09T04:15:42;10.07;;;7.22;;
33593;SDS011;19920;52.242;20.940;2022-09-09T04:18:08;9.07;;;7.43;;
33593;SDS011;19920;52.242;20.940;2022-09-09T04:20:34;11.52;;;7.93;;
33593;SDS011;19920;52.242;20.940;2022-09-09T04:23:00;11.75;;;9.63;;
33593;SDS011;19920;52.242;20.940;2022-09-09T04:25:26;11.23;;;7.32;;
33593;SDS011;19920;52.242;20.940;2022-09-09T04:27:55;10.52;;;7.70;;
33593;SDS011;19920;52.242;20.940;2022-09-09T04:30:22;11.93;;;7.22;;
33593;SDS011;19920;52.242;20.940;2022-09-09T04:32:48;11.50;;;7.18;;
33593;SDS011;19920;52.242;20.940;2022-09-09T04:35:14;11.73;;;7.07;;
33593;SDS011;19920;52.242;20.940;2022-09-09T04:37:40;11.30;;;8.15;;
33593;SDS011;19920;52.242;20.940;2022-09-09T04:40:06;14.45;;;8.80;;
33593;SDS011;19920;52.242;20.940;2022-09-09T04:42:38;10.05;;;7.22;;
33593;SDS011;19920;52.242;20.940;2022-09-09T04:45:04;11.60;;;7.40;;
33593;SDS011;19920;52.242;20.940;2022-09-09T04:47:32;10.10;;;7.15;;
33593;SDS011;19920;52.242;20.940;2022-09-09T04:49:57;11.82;;;7.13;;
33593;SDS011;19920;52.242;20.940;2022-09-09T04:52:23;9.95;;;6.75;;
33593;SDS011;19920;52.242;20.940;2022-09-09T04:54:49;10.57;;;7.22;;
33593;SDS011;19920;52.242;20.940;2022-09-09T04:57:14;9.90;;;6.82;;
33593;SDS011;19920;52.242;20.940;2022-09-09T04:59:40;9.85;;;6.93;;
33593;SDS011;19920;52.242;20.940;2022-09-09T05:02:06;9.73;;;7.18;;
33593;SDS011;19920;52.242;20.940;2022-09-09T05:04:31;9.05;;;6.85;;
33593;SDS011;19920;52.242;20.940;2022-09-09T05:06:58;10.55;;;7.60;;
33593;SDS011;19920;52.242;20.940;2022-09-09T05:09:24;9.88;;;7.75;;
33593;SDS011;19920;52.242;20.940;2022-09-09T05:11:49;8.05;;;6.93;;
33593;SDS011;19920;52.242;20.940;2022-09-09T05:14:16;12.30;;;6.82;;
33593;SDS011;19920;52.242;20.940;2022-09-09T05:16:43;10.10;;;7.03;;
33593;SDS011;19920;52.242;20.940;2022-09-09T05:19:09;8.70;;;6.57;;
33593;SDS011;19920;52.242;20.940;2022-09-09T05:21:35;8.57;;;5.85;;
33593;SDS011;19920;52.242;20.940;2022-09-09T05:24:02;8.00;;;5.68;;
33593;SDS011;19920;52.242;20.940;2022-09-09T05:26:27;9.70;;;6.40;;
33593;SDS011;19920;52.242;20.940;2022-09-09T05:28:54;7.00;;;6.13;;
33593;SDS011;19920;52.242;20.940;2022-09-09T05:31:20;8.95;;;6.30;;
33593;SDS011;19920;52.242;20.940;2022-09-09T05:33:46;9.82;;;6.40;;
33593;SDS011;19920;52.242;20.940;2022-09-09T05:36:18;7.75;;;5.28;;
33593;SDS011;19920;52.242;20.940;2022-09-09T05:38:45;8.10;;;5.88;;
33593;SDS011;19920;52.242;20.940;2022-09-09T05:41:11;7.30;;;6.30;;
33593;SDS011;19920;52.242;20.940;2022-09-09T05:43:38;7.95;;;6.20;;
33593;SDS011;19920;52.242;20.940;2022-09-09T05:48:32;8.02;;;6.25;;
33593;SDS011;19920;52.242;20.940;2022-09-09T05:51:00;8.98;;;6.85;;
33593;SDS011;19920;52.242;20.940;2022-09-09T05:53:27;8.43;;;6.07;;
33593;SDS011;19920;52.242;20.940;2022-09-09T05:56:03;9.20;;;6.30;;
33593;SDS011;19920;52.242;20.940;2022-09-09T05:58:32;7.83;;;6.23;;
33593;SDS011;19920;52.242;20.940;2022-09-09T06:03:28;7.97;;;6.35;;
33593;SDS011;19920;52.242;20.940;2022-09-09T06:06:01;9.75;;;6.32;;
33593;SDS011;19920;52.242;20.940;2022-09-09T06:08:32;7.70;;;6.35;;
33593;SDS011;19920;52.242;20.940;2022-09-09T06:11:05;7.28;;;6.15;;
33593;SDS011;19920;52.242;20.940;2022-09-09T06:13:31;8.13;;;6.35;;
33593;SDS011;19920;52.242;20.940;2022-09-09T06:15:57;7.90;;;6.53;;
33593;SDS011;19920;52.242;20.940;2022-09-09T06:18:24;9.70;;;6.30;;
33593;SDS011;19920;52.242;20.940;2022-09-09T06:20:57;11.43;;;7.13;;
33593;SDS011;19920;52.242;20.940;2022-09-09T06:23:29;9.30;;;7.43;;
33593;SDS011;19920;52.242;20.940;2022-09-09T06:28:32;13.13;;;6.78;;
33593;SDS011;19920;52.242;20.940;2022-09-09T06:30:59;9.63;;;6.63;;
33593;SDS011;19920;52.242;20.940;2022-09-09T06:33:26;7.43;;;6.47;;
33593;SDS011;19920;52.242;20.940;2022-09-09T06:35:55;8.40;;;6.13;;
33593;SDS011;19920;52.242;20.940;2022-09-09T06:38:22;8.82;;;6.97;;
33593;SDS011;19920;52.242;20.940;2022-09-09T06:40:54;9.75;;;6.00;;
33593;SDS011;19920;52.242;20.940;2022-09-09T06:43:21;9.73;;;7.32;;
33593;SDS011;19920;52.242;20.940;2022-09-09T06:45:54;9.73;;;7.28;;
33593;SDS011;19920;52.242;20.940;2022-09-09T06:48:28;10.10;;;8.35;;
33593;SDS011;19920;52.242;20.940;2022-09-09T06:51:04;14.85;;;11.60;;
33593;SDS011;19920;52.242;20.940;2022-09-09T06:53:40;8.00;;;6.65;;
33593;SDS011;19920;52.242;20.940;2022-09-09T06:58:44;9.02;;;7.43;;
33593;SDS011;19920;52.242;20.940;2022-09-09T07:01:12;9.70;;;7.20;;
33593;SDS011;19920;52.242;20.940;2022-09-09T07:03:39;8.82;;;6.63;;
33593;SDS011;19920;52.242;20.940;2022-09-09T07:06:06;10.00;;;7.57;;
33593;SDS011;19920;52.242;20.940;2022-09-09T07:08:33;9.88;;;8.15;;
33593;SDS011;19920;52.242;20.940;2022-09-09T07:11:03;10.13;;;8.63;;
33593;SDS011;19920;52.242;20.940;2022-09-09T07:13:30;12.25;;;9.80;;
33593;SDS011;19920;52.242;20.940;2022-09-09T07:16:03;12.38;;;10.60;;
33593;SDS011;19920;52.242;20.940;2022-09-09T07:18:32;13.93;;;11.77;;
33593;SDS011;19920;52.242;20.940;2022-09-09T07:20:59;12.43;;;10.43;;
33593;SDS011;19920;52.242;20.940;2022-09-09T07:23:27;12.38;;;10.40;;
33593;SDS011;19920;52.242;20.940;2022-09-09T07:25:53;10.82;;;8.43;;
33593;SDS011;19920;52.242;20.940;2022-09-09T07:28:22;11.07;;;8.20;;
33593;SDS011;19920;52.242;20.940;2022-09-09T07:30:58;10.30;;;8.02;;
33593;SDS011;19920;52.242;20.940;2022-09-09T07:33:28;12.57;;;8.68;;
33593;SDS011;19920;52.242;20.940;2022-09-09T07:36:05;12.23;;;7.90;;
33593;SDS011;19920;52.242;20.940;2022-09-09T07:38:47;12.05;;;8.75;;
33593;SDS011;19920;52.242;20.940;2022-09-09T07:41:20;11.25;;;8.25;;
33593;SDS011;19920;52.242;20.940;2022-09-09T07:43:48;11.07;;;9.10;;
33593;SDS011;19920;52.242;20.940;2022-09-09T07:46:15;10.98;;;8.48;;
33593;SDS011;19920;52.242;20.940;2022-09-09T07:48:45;13.25;;;9.07;;
33593;SDS011;19920;52.242;20.940;2022-09-09T07:51:16;11.70;;;9.23;;
33593;SDS011;19920;52.242;20.940;2022-09-09T07:53:44;10.90;;;8.82;;
33593;SDS011;19920;52.242;20.940;2022-09-09T07:56:15;11.52;;;9.15;;
33593;SDS011;19920;52.242;20.940;2022-09-09T07:58:42;12.80;;;8.38;;
33593;SDS011;19920;52.242;20.940;2022-09-09T08:01:12;11.50;;;9.13;;
33593;SDS011;19920;52.242;20.940;2022-09-09T08:03:39;12.52;;;8.73;;
33593;SDS011;19920;52.242;20.940;2022-09-09T08:06:06;11.85;;;9.40;;
33593;SDS011;19920;52.242;20.940;2022-09-09T08:08:33;15.10;;;10.68;;
33593;SDS011;19920;52.242;20.940;2022-09-09T08:11:10;13.98;;;9.95;;
33593;SDS011;19920;52.242;20.940;2022-09-09T08:13:40;11.88;;;9.15;;
33593;SDS011;19920;52.242;20.940;2022-09-09T08:16:10;12.32;;;9.40;;
33593;SDS011;19920;52.242;20.940;2022-09-09T08:18:38;15.50;;;9.80;;
33593;SDS011;19920;52.242;20.940;2022-09-09T08:21:05;13.15;;;9.27;;
33593;SDS011;19920;52.242;20.940;2022-09-09T08:23:32;12.05;;;9.50;;
33593;SDS011;19920;52.242;20.940;2022-09-09T08:26:06;14.10;;;10.05;;
33593;SDS011;19920;52.242;20.940;2022-09-09T08:28:35;15.13;;;10.05;;
33593;SDS011;19920;52.242;20.940;2022-09-09T08:31:11;15.93;;;9.60;;
33593;SDS011;19920;52.242;20.940;2022-09-09T08:33:41;15.25;;;9.50;;
33593;SDS011;19920;52.242;20.940;2022-09-09T08:36:10;14.00;;;10.25;;
33593;SDS011;19920;52.242;20.940;2022-09-09T08:38:40;13.55;;;10.73;;
33593;SDS011;19920;52.242;20.940;2022-09-09T08:41:10;13.57;;;10.80;;
33593;SDS011;19920;52.242;20.940;2022-09-09T08:43:58;15.30;;;10.93;;
33593;SDS011;19920;52.242;20.940;2022-09-09T08:46:46;15.15;;;11.30;;
33593;SDS011;19920;52.242;20.940;2022-09-09T08:51:48;16.70;;;11.18;;
33593;SDS011;19920;52.242;20.940;2022-09-09T08:54:14;16.48;;;11.95;;
33593;SDS011;19920;52.242;20.940;2022-09-09T08:56:40;17.05;;;11.30;;
33593;SDS011;19920;52.242;20.940;2022-09-09T08:59:07;17.58;;;10.73;;
33593;SDS011;19920;52.242;20.940;2022-09-09T09:01:50;16.98;;;11.93;;
33593;SDS011;19920;52.242;20.940;2022-09-09T09:12:28;17.50;;;11.93;;
33593;SDS011;19920;52.242;20.940;2022-09-09T09:14:58;20.38;;;13.32;;
33593;SDS011;19920;52.242;20.940;2022-09-09T09:17:25;18.92;;;12.30;;
33593;SDS011;19920;52.242;20.940;2022-09-09T09:19:53;17.80;;;12.98;;
33593;SDS011;19920;52.242;20.940;2022-09-09T09:22:20;22.55;;;13.20;;
33593;SDS011;19920;52.242;20.940;2022-09-09T09:24:59;19.55;;;12.80;;
33593;SDS011;19920;52.242;20.940;2022-09-09T09:28:02;19.17;;;13.00;;
33593;SDS011;19920;52.242;20.940;2022-09-09T09:30:35;19.27;;;13.48;;
33593;SDS011;19920;52.242;20.940;2022-09-09T09:33:02;21.70;;;13.50;;
33593;SDS011;19920;52.242;20.940;2022-09-09T09:35:39;20.15;;;13.45;;
33593;SDS011;19920;52.242;20.940;2022-09-09T09:38:26;22.00;;;14.13;;
33593;SDS011;19920;52.242;20.940;2022-09-09T09:40:56;19.80;;;13.50;;
33593;SDS011;19920;52.242;20.940;2022-09-09T09:43:24;21.20;;;14.82;;
33593;SDS011;19920;52.242;20.940;2022-09-09T09:45:54;21.55;;;14.38;;
33593;SDS011;19920;52.242;20.940;2022-09-09T09:48:23;22.67;;;14.30;;
33593;SDS011;19920;52.242;20.940;2022-09-09T09:50:56;20.42;;;14.15;;
33593;SDS011;19920;52.242;20.940;2022-09-09T09:56:01;24.92;;;14.52;;
33593;SDS011;19920;52.242;20.940;2022-09-09T09:58:33;19.83;;;15.13;;
33593;SDS011;19920;52.242;20.940;2022-09-09T10:01:28;24.08;;;15.52;;
33593;SDS011;19920;52.242;20.940;2022-09-09T10:04:01;21.58;;;14.95;;
33593;SDS011;19920;52.242;20.940;2022-09-09T10:06:38;23.73;;;15.18;;
33593;SDS011;19920;52.242;20.940;2022-09-09T10:09:50;22.33;;;15.77;;
33593;SDS011;19920;52.242;20.940;2022-09-09T10:20:42;22.42;;;15.65;;
33593;SDS011;19920;52.242;20.940;2022-09-09T10:26:07;22.95;;;16.02;;
33593;SDS011;19920;52.242;20.940;2022-09-09T10:37:13;27.13;;;17.30;;
33593;SDS011;19920;52.242;20.940;2022-09-09T10:42:52;24.08;;;16.63;;
33593;SDS011;19920;52.242;20.940;2022-09-09T10:45:23;28.85;;;18.00;;
33593;SDS011;19920;52.242;20.940;2022-09-09T10:48:18;25.90;;;16.88;;
33593;SDS011;19920;52.242;20.940;2022-09-09T10:50:51;28.67;;;17.23;;
33593;SDS011;19920;52.242;20.940;2022-09-09T10:56:17;26.25;;;18.42;;
33593;SDS011;19920;52.242;20.940;2022-09-09T11:04:21;27.95;;;18.73;;
33593;SDS011;19920;52.242;20.940;2022-09-09T11:06:55;29.30;;;19.10;;
33593;SDS011;19920;52.242;20.940;2022-09-09T11:09:23;30.75;;;19.42;;
33593;SDS011;19920;52.242;20.940;2022-09-09T11:11:53;29.33;;;19.88;;
33593;SDS011;19920;52.242;20.940;2022-09-09T11:17:03;34.08;;;19.73;;
33593;SDS011;19920;52.242;20.940;2022-09-09T11:19:35;31.33;;;20.33;;
33593;SDS011;19920;52.242;20.940;2022-09-09T11:22:06;32.72;;;20.75;;
33593;SDS011;19920;52.242;20.940;2022-09-09T11:24:40;31.75;;;19.98;;
33593;SDS011;19920;52.242;20.940;2022-09-09T11:35:17;33.97;;;22.15;;
33593;SDS011;19920;52.242;20.940;2022-09-09T11:40:37;37.15;;;23.13;;
33593;SDS011;19920;52.242;20.940;2022-09-09T11:43:05;36.38;;;22.65;;
33593;SDS011;19920;52.242;20.940;2022-09-09T11:45:39;38.25;;;22.17;;
33593;SDS011;19920;52.242;20.940;2022-09-09T11:48:22;36.45;;;22.30;;
33593;SDS011;19920;52.242;20.940;2022-09-09T11:50:58;38.28;;;23.20;;
33593;SDS011;19920;52.242;20.940;2022-09-09T11:53:27;38.40;;;22.50;;
33593;SDS011;19920;52.242;20.940;2022-09-09T11:56:00;35.95;;;22.65;;
33593;SDS011;19920;52.242;20.940;2022-09-09T11:58:28;39.05;;;23.17;;
33593;SDS011;19920;52.242;20.940;2022-09-09T12:01:16;42.20;;;25.00;;
33593;SDS011;19920;52.242;20.940;2022-09-09T12:06:50;41.30;;;23.05;;
33593;SDS011;19920;52.242;20.940;2022-09-09T12:15:01;41.45;;;24.08;;
33593;SDS011;19920;52.242;20.940;2022-09-09T12:17:37;38.03;;;22.80;;
33593;SDS011;19920;52.242;20.940;2022-09-09T12:20:18;36.63;;;23.20;;
33593;SDS011;19920;52.242;20.940;2022-09-09T12:30:37;41.00;;;23.98;;
33593;SDS011;19920;52.242;20.940;2022-09-09T12:33:13;42.80;;;25.27;;
33593;SDS011;19920;52.242;20.940;2022-09-09T12:35:41;38.72;;;23.27;;
33593;SDS011;19920;52.242;20.940;2022-09-09T12:38:15;44.17;;;24.97;;
33593;SDS011;19920;52.242;20.940;2022-09-09T12:40:55;40.67;;;24.55;;
33593;SDS011;19920;52.242;20.940;2022-09-09T12:43:22;41.45;;;24.80;;
33593;SDS011;19920;52.242;20.940;2022-09-09T12:45:50;37.25;;;24.15;;
33593;SDS011;19920;52.242;20.940;2022-09-09T12:48:22;43.67;;;25.30;;
33593;SDS011;19920;52.242;20.940;2022-09-09T12:51:01;42.65;;;24.13;;
33593;SDS011;19920;52.242;20.940;2022-09-09T12:53:31;43.70;;;25.25;;
33593;SDS011;19920;52.242;20.940;2022-09-09T12:56:01;43.10;;;25.40;;
33593;SDS011;19920;52.242;20.940;2022-09-09T12:58:29;45.50;;;26.30;;
33593;SDS011;19920;52.242;20.940;2022-09-09T13:01:00;48.53;;;26.17;;
33593;SDS011;19920;52.242;20.940;2022-09-09T13:03:30;42.80;;;25.85;;
33593;SDS011;19920;52.242;20.940;2022-09-09T13:06:12;46.08;;;26.40;;
33593;SDS011;19920;52.242;20.940;2022-09-09T13:08:44;48.85;;;26.33;;
33593;SDS011;19920;52.242;20.940;2022-09-09T13:11:10;43.70;;;25.02;;
33593;SDS011;19920;52.242;20.940;2022-09-09T13:13:41;43.95;;;24.80;;
33593;SDS011;19920;52.242;20.940;2022-09-09T13:19:07;46.78;;;27.27;;
33593;SDS011;19920;52.242;20.940;2022-09-09T13:21:35;45.00;;;26.90;;
33593;SDS011;19920;52.242;20.940;2022-09-09T13:24:04;49.17;;;28.33;;
33593;SDS011;19920;52.242;20.940;2022-09-09T13:26:33;49.10;;;27.25;;
33593;SDS011;19920;52.242;20.940;2022-09-09T13:29:16;46.15;;;27.65;;
33593;SDS011;19920;52.242;20.940;2022-09-09T13:31:43;45.70;;;27.80;;
33593;SDS011;19920;52.242;20.940;2022-09-09T13:34:12;47.10;;;27.65;;
33593;SDS011;19920;52.242;20.940;2022-09-09T13:36:39;48.78;;;27.20;;
33593;SDS011;19920;52.242;20.940;2022-09-09T13:39:12;45.38;;;27.02;;
33593;SDS011;19920;52.242;20.940;2022-09-09T13:41:45;47.08;;;27.40;;
33593;SDS011;19920;52.242;20.940;2022-09-09T13:44:18;45.65;;;26.95;;
33593;SDS011;19920;52.242;20.940;2022-09-09T13:49:39;50.42;;;27.27;;
33593;SDS011;19920;52.242;20.940;2022-09-09T13:52:14;51.30;;;27.17;;
33593;SDS011;19920;52.242;20.940;2022-09-09T13:54:43;49.58;;;29.50;;
33593;SDS011;19920;52.242;20.940;2022-09-09T13:57:20;51.53;;;27.95;;
33593;SDS011;19920;52.242;20.940;2022-09-09T13:59:48;50.13;;;27.63;;
33593;SDS011;19920;52.242;20.940;2022-09-09T14:02:15;46.83;;;27.48;;
33593;SDS011;19920;52.242;20.940;2022-09-09T14:04:44;46.88;;;27.73;;
33593;SDS011;19920;52.242;20.940;2022-09-09T14:07:13;48.97;;;27.05;;
33593;SDS011;19920;52.242;20.940;2022-09-09T14:09:40;52.17;;;28.48;;
33593;SDS011;19920;52.242;20.940;2022-09-09T14:12:13;44.97;;;26.63;;
33593;SDS011;19920;52.242;20.940;2022-09-09T14:14:40;45.65;;;27.05;;
33593;SDS011;19920;52.242;20.940;2022-09-09T14:17:07;51.10;;;26.85;;
33593;SDS011;19920;52.242;20.940;2022-09-09T14:19:33;51.55;;;27.42;;
33593;SDS011;19920;52.242;20.940;2022-09-09T14:21:59;51.00;;;26.45;;
33593;SDS011;19920;52.242;20.940;2022-09-09T14:24:26;47.10;;;26.00;;
33593;SDS011;19920;52.242;20.940;2022-09-09T14:26:53;48.88;;;25.02;;
33593;SDS011;19920;52.242;20.940;2022-09-09T14:29:19;44.13;;;24.85;;
33593;SDS011;19920;52.242;20.940;2022-09-09T14:31:44;47.78;;;24.55;;
33593;SDS011;19920;52.242;20.940;2022-09-09T14:34:10;47.95;;;24.88;;
33593;SDS011;19920;52.242;20.940;2022-09-09T14:36:39;49.75;;;23.52;;
33593;SDS011;19920;52.242;20.940;2022-09-09T14:39:06;47.80;;;27.67;;
33593;SDS011;19920;52.242;20.940;2022-09-09T14:41:32;44.72;;;23.75;;
33593;SDS011;19920;52.242;20.940;2022-09-09T14:43:58;45.45;;;24.52;;
33593;SDS011;19920;52.242;20.940;2022-09-09T14:46:24;39.05;;;22.30;;
33593;SDS011;19920;52.242;20.940;2022-09-09T14:48:51;43.35;;;23.13;;
33593;SDS011;19920;52.242;20.940;2022-09-09T14:51:18;43.50;;;22.95;;
33593;SDS011;19920;52.242;20.940;2022-09-09T14:53:50;44.53;;;22.83;;
33593;SDS011;19920;52.242;20.940;2022-09-09T14:56:19;40.15;;;23.58;;
33593;SDS011;19920;52.242;20.940;2022-09-09T14:58:47;47.87;;;24.03;;
33593;SDS011;19920;52.242;20.940;2022-09-09T15:01:14;42.90;;;23.33;;
33593;SDS011;19920;52.242;20.940;2022-09-09T15:03:41;42.65;;;23.00;;
33593;SDS011;19920;52.242;20.940;2022-09-09T15:06:13;39.65;;;21.85;;
33593;SDS011;19920;52.242;20.940;2022-09-09T15:08:43;40.20;;;21.77;;
33593;SDS011;19920;52.242;20.940;2022-09-09T15:13:37;43.25;;;22.33;;
33593;SDS011;19920;52.242;20.940;2022-09-09T15:16:08;41.88;;;21.65;;
33593;SDS011;19920;52.242;20.940;2022-09-09T15:18:38;44.50;;;24.02;;
33593;SDS011;19920;52.242;20.940;2022-09-09T15:21:11;42.78;;;24.02;;
33593;SDS011;19920;52.242;20.940;2022-09-09T15:23:38;48.38;;;25.58;;
33593;SDS011;19920;52.242;20.940;2022-09-09T15:26:05;44.47;;;24.65;;
33593;SDS011;19920;52.242;20.940;2022-09-09T15:28:34;44.95;;;24.50;;
33593;SDS011;19920;52.242;20.940;2022-09-09T15:31:13;44.80;;;25.00;;
33593;SDS011;19920;52.242;20.940;2022-09-09T15:33:45;45.97;;;25.75;;
33593;SDS011;19920;52.242;20.940;2022-09-09T15:36:22;45.90;;;25.70;;
33593;SDS011;19920;52.242;20.940;2022-09-09T15:38:50;43.97;;;24.40;;
33593;SDS011;19920;52.242;20.940;2022-09-09T15:41:17;45.17;;;25.63;;
33593;SDS011;19920;52.242;20.940;2022-09-09T15:43:44;43.38;;;24.15;;
33593;SDS011;19920;52.242;20.940;2022-09-09T15:48:52;43.50;;;24.42;;
33593;SDS011;19920;52.242;20.940;2022-09-09T15:51:22;43.50;;;24.75;;
33593;SDS011;19920;52.242;20.940;2022-09-09T15:53:56;40.75;;;24.35;;
33593;SDS011;19920;52.242;20.940;2022-09-09T15:56:24;42.17;;;23.92;;
33593;SDS011;19920;52.242;20.940;2022-09-09T15:58:50;43.25;;;24.05;;
33593;SDS011;19920;52.242;20.940;2022-09-09T16:01:17;40.08;;;24.38;;
33593;SDS011;19920;52.242;20.940;2022-09-09T16:03:44;44.28;;;24.85;;
33593;SDS011;19920;52.242;20.940;2022-09-09T16:06:15;40.33;;;24.00;;
33593;SDS011;19920;52.242;20.940;2022-09-09T16:08:43;41.13;;;24.80;;
33593;SDS011;19920;52.242;20.940;2022-09-09T16:11:12;41.42;;;25.40;;
33593;SDS011;19920;52.242;20.940;2022-09-09T16:13:42;41.40;;;25.00;;
33593;SDS011;19920;52.242;20.940;2022-09-09T16:16:09;41.30;;;23.38;;
33593;SDS011;19920;52.242;20.940;2022-09-09T16:18:38;36.78;;;23.60;;
33593;SDS011;19920;52.242;20.940;2022-09-09T16:21:07;40.38;;;24.08;;
33593;SDS011;19920;52.242;20.940;2022-09-09T16:23:35;41.00;;;24.02;;
33593;SDS011;19920;52.242;20.940;2022-09-09T16:26:01;37.28;;;24.40;;
33593;SDS011;19920;52.242;20.940;2022-09-09T16:28:27;40.25;;;24.10;;
33593;SDS011;19920;52.242;20.940;2022-09-09T16:30:54;36.92;;;23.88;;
33593;SDS011;19920;52.242;20.940;2022-09-09T16:33:19;41.55;;;23.58;;
33593;SDS011;19920;52.242;20.940;2022-09-09T16:35:45;40.55;;;24.70;;
33593;SDS011;19920;52.242;20.940;2022-09-09T16:38:11;39.00;;;23.70;;
33593;SDS011;19920;52.242;20.940;2022-09-09T16:40:37;40.55;;;24.30;;
33593;SDS011;19920;52.242;20.940;2022-09-09T16:43:03;42.00;;;24.05;;
33593;SDS011;19920;52.242;20.940;2022-09-09T16:45:30;39.42;;;24.48;;
33593;SDS011;19920;52.242;20.940;2022-09-09T16:47:57;41.30;;;24.08;;
33593;SDS011;19920;52.242;20.940;2022-09-09T16:50:23;42.30;;;24.50;;
33593;SDS011;19920;52.242;20.940;2022-09-09T16:52:50;39.40;;;24.33;;
33593;SDS011;19920;52.242;20.940;2022-09-09T16:55:16;41.92;;;24.40;;
33593;SDS011;19920;52.242;20.940;2022-09-09T16:57:43;41.35;;;23.48;;
33593;SDS011;19920;52.242;20.940;2022-09-09T17:00:08;36.83;;;22.85;;
33593;SDS011;19920;52.242;20.940;2022-09-09T17:02:34;39.53;;;23.25;;
33593;SDS011;19920;52.242;20.940;2022-09-09T17:05:00;41.08;;;23.60;;
33593;SDS011;19920;52.242;20.940;2022-09-09T17:07:25;36.85;;;22.77;;